createdAt,value
2022-09-30T00:01:36.764Z,5.13
2022-09-30T00:04:05.384Z,5.07
2022-09-30T00:06:35.076Z,5.47
2022-09-30T00:09:03.395Z,5.07
2022-09-30T00:11:34.326Z,4.83
2022-09-30T00:14:03.572Z,5.07
2022-09-30T00:16:36.321Z,5.17
2022-09-30T00:19:05.540Z,5.40
2022-09-30T00:21:34.786Z,5.17
2022-09-30T00:24:03.534Z,4.90
2022-09-30T00:26:32.293Z,5.67
2022-09-30T00:29:01.753Z,5.60
2022-09-30T00:31:34.142Z,4.77
2022-09-30T00:34:08.471Z,5.10
2022-09-30T00:36:39.292Z,4.53
2022-09-30T00:39:08.625Z,5.20
2022-09-30T00:41:37.486Z,5.00
2022-09-30T00:44:38.684Z,5.33
2022-09-30T00:47:34.167Z,5.03
2022-09-30T00:50:07.364Z,5.70
2022-09-30T00:52:35.671Z,5.37
2022-09-30T00:55:08.157Z,5.07
2022-09-30T00:57:36.649Z,5.60
2022-09-30T01:00:06.604Z,5.57
2022-09-30T01:02:36.435Z,4.73
2022-09-30T01:05:04.788Z,5.10
2022-09-30T01:07:33.611Z,5.00
2022-09-30T01:10:03.136Z,5.03
2022-09-30T01:12:31.101Z,4.60
2022-09-30T01:15:00.575Z,5.03
2022-09-30T01:17:42.823Z,5.30
2022-09-30T01:20:53.136Z,5.10
2022-09-30T01:23:52.957Z,4.97
2022-09-30T01:26:45.509Z,5.13
2022-09-30T01:29:52.875Z,5.27
2022-09-30T01:32:34.877Z,5.10
2022-09-30T01:35:10.980Z,5.37
2022-09-30T01:37:45.859Z,4.97
2022-09-30T01:40:25.795Z,5.43
2022-09-30T01:43:01.513Z,4.87
2022-09-30T01:45:36.148Z,4.93
2022-09-30T01:48:12.802Z,5.07
2022-09-30T01:50:48.304Z,4.83
2022-09-30T01:53:24.933Z,5.00
2022-09-30T01:55:59.340Z,4.40
2022-09-30T01:58:36.909Z,4.83
2022-09-30T02:01:12.764Z,5.07
2022-09-30T02:03:48.768Z,4.77
2022-09-30T02:06:20.466Z,5.17
2022-09-30T02:08:54.493Z,4.40
2022-09-30T02:11:25.247Z,4.83
2022-09-30T02:13:57.614Z,4.73
2022-09-30T02:16:30.365Z,4.93
2022-09-30T02:19:05.739Z,4.90
2022-09-30T02:21:37.314Z,5.43
2022-09-30T02:24:09.403Z,4.77
2022-09-30T02:26:40.441Z,5.30
2022-09-30T02:29:13.879Z,5.33
2022-09-30T02:31:45.188Z,5.77
2022-09-30T02:34:17.595Z,5.07
2022-09-30T02:36:49.488Z,4.83
2022-09-30T02:39:26.402Z,5.47
2022-09-30T02:42:01.087Z,4.87
2022-09-30T02:44:29.440Z,5.00
2022-09-30T02:47:02.002Z,5.17
2022-09-30T02:49:38.049Z,5.13
2022-09-30T02:52:16.052Z,4.87
2022-09-30T02:54:51.870Z,4.90
2022-09-30T02:57:28.068Z,5.60
2022-09-30T02:59:55.987Z,5.00
2022-09-30T03:02:24.563Z,5.23
2022-09-30T03:04:53.751Z,4.53
2022-09-30T03:07:21.875Z,5.00
2022-09-30T03:09:49.793Z,4.80
2022-09-30T03:12:34.168Z,4.57
2022-09-30T03:15:21.599Z,5.27
2022-09-30T03:18:04.510Z,5.33
2022-09-30T03:20:42.223Z,4.90
2022-09-30T03:23:52.679Z,5.27
2022-09-30T03:26:35.948Z,5.43
2022-09-30T03:29:14.845Z,4.90
2022-09-30T03:31:56.933Z,5.07
2022-09-30T03:34:33.151Z,4.97
2022-09-30T03:37:09.463Z,5.47
2022-09-30T03:39:53.063Z,5.40
2022-09-30T03:42:29.005Z,6.00
2022-09-30T03:45:01.358Z,5.07
2022-09-30T03:47:31.421Z,5.87
2022-09-30T03:50:03.329Z,5.40
2022-09-30T03:52:34.492Z,5.37
2022-09-30T03:55:05.986Z,4.80
2022-09-30T03:57:34.024Z,5.30
2022-09-30T04:00:02.271Z,5.37
2022-09-30T04:02:33.058Z,5.37
2022-09-30T04:05:00.968Z,5.83
2022-09-30T04:07:28.891Z,5.80
2022-09-30T04:09:58.138Z,5.90
2022-09-30T04:12:26.407Z,5.63
2022-09-30T04:14:54.311Z,5.17
2022-09-30T04:17:22.499Z,5.57
2022-09-30T04:19:50.837Z,5.17
2022-09-30T04:22:19.923Z,5.70
2022-09-30T04:24:49.985Z,5.53
2022-09-30T04:27:19.212Z,5.73
2022-09-30T04:29:47.130Z,5.43
2022-09-30T04:32:14.957Z,5.33
2022-09-30T04:34:43.003Z,5.60
2022-09-30T04:37:11.272Z,5.33
2022-09-30T04:39:39.216Z,5.17
2022-09-30T04:42:07.369Z,5.47
2022-09-30T04:44:36.592Z,6.33
2022-09-30T04:47:04.862Z,5.57
2022-09-30T04:49:32.775Z,5.67
2022-09-30T04:52:00.900Z,6.10
2022-09-30T04:54:28.816Z,5.90
2022-09-30T04:56:56.753Z,5.50
2022-09-30T04:59:24.776Z,5.97
2022-09-30T05:01:54.644Z,5.47
2022-09-30T05:04:22.607Z,5.67
2022-09-30T05:06:50.661Z,5.80
2022-09-30T05:09:18.588Z,5.80
2022-09-30T05:11:46.509Z,5.60
2022-09-30T05:14:14.420Z,5.70
2022-09-30T05:16:42.349Z,6.10
2022-09-30T05:19:11.681Z,5.90
2022-09-30T05:21:39.541Z,5.83
2022-09-30T05:24:07.451Z,5.90
2022-09-30T05:26:35.381Z,5.40
2022-09-30T05:29:03.341Z,6.03
2022-09-30T05:31:31.244Z,5.60
2022-09-30T05:33:59.290Z,6.20
2022-09-30T05:36:28.740Z,6.20
2022-09-30T05:38:56.706Z,6.47
2022-09-30T05:41:24.659Z,6.40
2022-09-30T05:43:52.651Z,6.10
2022-09-30T05:46:21.580Z,6.10
2022-09-30T05:48:49.591Z,6.00
2022-09-30T05:51:17.516Z,6.20
2022-09-30T05:53:46.831Z,5.93
2022-09-30T05:56:15.206Z,5.87
2022-09-30T05:58:43.160Z,5.97
2022-09-30T06:01:14.547Z,6.03
2022-09-30T06:03:43.250Z,6.93
2022-09-30T06:06:11.521Z,5.90
2022-09-30T06:08:40.229Z,5.90
2022-09-30T06:11:14.190Z,6.23
2022-09-30T06:13:43.465Z,5.63
2022-09-30T06:16:12.530Z,5.53
2022-09-30T06:18:41.683Z,5.97
2022-09-30T06:21:12.544Z,5.77
2022-09-30T06:23:40.751Z,6.00
2022-09-30T06:26:11.549Z,5.37
2022-09-30T06:28:41.437Z,5.60
2022-09-30T06:31:09.763Z,5.70
2022-09-30T06:33:37.690Z,5.13
2022-09-30T06:36:06.747Z,5.87
2022-09-30T06:38:37.428Z,5.93
2022-09-30T06:41:06.479Z,5.70
2022-09-30T06:43:39.262Z,5.60
2022-09-30T06:46:29.563Z,5.37
2022-09-30T06:49:09.844Z,5.50
2022-09-30T06:51:40.476Z,5.30
2022-09-30T06:54:09.014Z,5.30
2022-09-30T06:56:37.240Z,5.30
2022-09-30T06:59:05.115Z,5.37
2022-09-30T07:01:34.485Z,4.97
2022-09-30T07:04:08.068Z,5.00
2022-09-30T07:06:36.167Z,4.47
2022-09-30T07:09:04.210Z,4.77
2022-09-30T07:11:32.128Z,5.30
2022-09-30T07:14:00.058Z,4.27
2022-09-30T07:16:28.028Z,5.10
2022-09-30T07:18:58.332Z,4.90
2022-09-30T07:21:26.207Z,4.90
2022-09-30T07:23:54.899Z,5.17
2022-09-30T07:26:24.324Z,5.37
2022-09-30T07:28:53.459Z,5.00
2022-09-30T07:31:34.989Z,5.13
2022-09-30T07:34:07.639Z,5.70
2022-09-30T07:36:37.066Z,4.83
2022-09-30T07:39:06.939Z,5.53
2022-09-30T07:41:38.720Z,6.07
2022-09-30T07:44:08.939Z,5.90
2022-09-30T07:46:38.858Z,5.70
2022-09-30T07:49:12.599Z,5.80
2022-09-30T07:51:43.969Z,5.77
2022-09-30T07:54:14.535Z,5.70
2022-09-30T07:57:09.614Z,5.97
2022-09-30T07:59:33.418Z,5.47
2022-09-30T08:02:01.330Z,5.47
2022-09-30T08:04:30.712Z,5.80
2022-09-30T08:07:00.876Z,5.77
2022-09-30T08:09:30.666Z,6.27
2022-09-30T08:11:59.103Z,5.40
2022-09-30T08:14:28.669Z,6.37
2022-09-30T08:16:58.420Z,6.17
2022-09-30T08:19:27.852Z,5.83
2022-09-30T08:21:57.860Z,5.80
2022-09-30T08:24:27.517Z,6.27
2022-09-30T08:26:56.620Z,5.70
2022-09-30T08:32:12.789Z,6.03
2022-09-30T08:34:40.700Z,6.00
2022-09-30T08:37:10.119Z,5.87
2022-09-30T08:39:38.659Z,6.20
2022-09-30T08:45:20.613Z,9.20
2022-09-30T08:47:56.145Z,8.63
2022-09-30T08:50:31.372Z,5.63
2022-09-30T08:53:04.805Z,5.80
2022-09-30T08:55:39.372Z,5.70
2022-09-30T08:58:08.402Z,5.53
2022-09-30T09:00:37.156Z,5.03
2022-09-30T09:03:05.411Z,5.63
2022-09-30T09:05:50.106Z,5.60
2022-09-30T09:08:28.791Z,5.53
2022-09-30T09:11:05.907Z,4.93
2022-09-30T09:13:43.247Z,5.83
2022-09-30T09:16:20.213Z,5.77
2022-09-30T09:19:03.549Z,5.33
2022-09-30T09:21:51.618Z,5.20
2022-09-30T09:24:24.819Z,4.80
2022-09-30T09:26:54.882Z,8.97
2022-09-30T09:29:44.452Z,6.33
2022-09-30T09:32:16.064Z,5.10
2022-09-30T09:34:51.609Z,5.77
2022-09-30T09:37:46.868Z,5.17
2022-09-30T09:40:27.358Z,4.57
2022-09-30T09:43:09.960Z,5.23
2022-09-30T09:45:43.121Z,4.77
2022-09-30T09:48:12.711Z,4.80
2022-09-30T09:50:50.328Z,4.47
2022-09-30T09:53:38.867Z,4.40
2022-09-30T09:56:18.760Z,4.67
2022-09-30T09:59:06.129Z,4.70
2022-09-30T10:01:34.538Z,5.90
2022-09-30T10:04:11.641Z,4.60
2022-09-30T10:06:48.497Z,6.57
2022-09-30T10:09:28.498Z,4.20
2022-09-30T10:12:26.925Z,4.47
2022-09-30T10:14:59.916Z,5.30
2022-09-30T10:17:30.463Z,4.73
2022-09-30T10:20:07.315Z,4.23
2022-09-30T10:22:36.105Z,4.37
2022-09-30T10:25:21.613Z,4.63
2022-09-30T10:27:56.786Z,4.10
2022-09-30T10:30:43.946Z,4.30
2022-09-30T10:33:20.517Z,4.63
2022-09-30T10:35:58.152Z,6.57
2022-09-30T10:38:29.500Z,9.23
2022-09-30T10:40:58.148Z,4.10
2022-09-30T10:43:31.732Z,5.77
2022-09-30T10:48:57.442Z,3.90
2022-09-30T10:51:29.451Z,3.63
2022-09-30T10:53:58.057Z,4.03
2022-09-30T10:56:45.491Z,4.00
2022-09-30T10:59:28.907Z,3.70
2022-09-30T11:02:05.286Z,3.80
2022-09-30T11:04:38.752Z,3.80
2022-09-30T11:07:16.795Z,3.97
2022-09-30T11:09:51.267Z,3.43
2022-09-30T11:12:24.785Z,3.13
2022-09-30T11:15:04.328Z,3.70
2022-09-30T11:17:40.223Z,3.60
2022-09-30T11:20:16.734Z,4.20
2022-09-30T11:22:52.970Z,3.47
2022-09-30T11:25:25.836Z,3.97
2022-09-30T11:28:06.821Z,3.27
2022-09-30T11:30:45.691Z,3.73
2022-09-30T11:33:27.157Z,3.87
2022-09-30T11:36:01.046Z,4.10
2022-09-30T11:39:00.728Z,4.40
2022-09-30T11:41:31.926Z,3.83
2022-09-30T11:44:12.013Z,3.43
2022-09-30T11:46:52.361Z,3.40
2022-09-30T11:49:32.298Z,3.30
2022-09-30T11:52:09.950Z,3.07
2022-09-30T11:54:59.393Z,2.20
2022-09-30T11:57:34.320Z,2.17
2022-09-30T12:00:07.635Z,2.00
2022-09-30T12:02:45.445Z,2.40
2022-09-30T12:05:19.346Z,2.20
2022-09-30T12:07:51.025Z,3.10
2022-09-30T12:10:22.515Z,2.57
2022-09-30T12:12:55.587Z,2.10
2022-09-30T12:15:26.231Z,2.20
2022-09-30T12:18:01.423Z,2.37
2022-09-30T12:20:34.854Z,2.57
2022-09-30T12:23:14.731Z,2.23
2022-09-30T12:25:47.881Z,2.20
2022-09-30T12:28:44.561Z,2.00
2022-09-30T12:31:33.740Z,1.87
2022-09-30T12:34:15.784Z,2.23
2022-09-30T12:37:07.200Z,2.00
2022-09-30T12:40:11.158Z,2.10
2022-09-30T12:43:09.774Z,1.53
2022-09-30T12:46:00.824Z,1.57
2022-09-30T12:48:34.117Z,1.80
2022-09-30T12:51:04.562Z,1.90
2022-09-30T12:53:35.277Z,1.90
2022-09-30T12:56:05.636Z,2.00
2022-09-30T12:58:37.433Z,2.10
2022-09-30T13:01:12.569Z,1.70
2022-09-30T13:04:10.196Z,1.70
2022-09-30T13:07:11.733Z,1.60
2022-09-30T13:10:02.458Z,1.87
2022-09-30T13:12:43.100Z,1.67
2022-09-30T13:15:44.246Z,2.00
2022-09-30T13:18:49.699Z,1.70
2022-09-30T13:21:21.661Z,1.80
2022-09-30T13:23:50.303Z,1.70
2022-09-30T13:26:39.386Z,1.80
2022-09-30T13:29:35.898Z,1.80
2022-09-30T13:32:05.593Z,1.70
2022-09-30T13:34:36.446Z,1.70
2022-09-30T13:37:05.635Z,1.80
2022-09-30T13:39:46.579Z,1.70
2022-09-30T13:42:29.810Z,1.70
2022-09-30T13:45:03.055Z,1.50
2022-09-30T13:47:36.305Z,1.60
2022-09-30T13:50:14.443Z,1.87
2022-09-30T13:52:44.130Z,1.83
2022-09-30T13:55:19.681Z,9.53
2022-09-30T13:58:01.527Z,2.10
2022-09-30T14:00:46.381Z,1.60
2022-09-30T14:03:31.291Z,1.70
2022-09-30T14:06:08.402Z,1.90
2022-09-30T14:09:00.828Z,1.70
2022-09-30T14:11:48.093Z,1.87
2022-09-30T14:14:41.453Z,1.40
2022-09-30T14:17:27.965Z,1.57
2022-09-30T14:20:10.847Z,1.70
2022-09-30T14:22:39.184Z,1.30
2022-09-30T14:25:15.704Z,1.23
2022-09-30T14:27:59.332Z,1.40
2022-09-30T14:30:29.210Z,1.43
2022-09-30T14:32:59.483Z,1.30
2022-09-30T14:35:29.541Z,1.67
2022-09-30T14:38:00.171Z,1.40
2022-09-30T14:40:31.072Z,1.30
2022-09-30T14:43:02.802Z,1.10
2022-09-30T14:45:34.717Z,1.60
2022-09-30T14:48:08.495Z,1.40
2022-09-30T14:50:42.069Z,1.67
2022-09-30T14:53:28.320Z,1.70
2022-09-30T14:55:57.847Z,2.30
2022-09-30T14:58:30.284Z,1.90
2022-09-30T15:01:06.086Z,1.80
2022-09-30T15:03:36.634Z,1.80
2022-09-30T15:06:06.211Z,2.10
2022-09-30T15:08:34.171Z,1.60
2022-09-30T15:11:02.589Z,1.70
2022-09-30T15:13:32.482Z,1.50
2022-09-30T15:16:02.160Z,1.27
2022-09-30T15:18:33.331Z,1.70
2022-09-30T15:21:08.853Z,1.90
2022-09-30T15:23:40.476Z,1.63
2022-09-30T15:26:08.751Z,1.80
2022-09-30T15:28:37.753Z,1.60
2022-09-30T15:31:08.731Z,1.70
2022-09-30T15:33:37.065Z,1.80
2022-09-30T15:36:14.403Z,1.60
2022-09-30T15:38:42.550Z,1.90
2022-09-30T15:41:12.723Z,1.73
2022-09-30T15:43:44.122Z,1.80
2022-09-30T15:46:26.773Z,1.90
2022-09-30T15:48:57.108Z,1.60
2022-09-30T15:51:37.637Z,1.83
2022-09-30T15:54:32.152Z,2.10
2022-09-30T15:57:03.177Z,2.10
2022-09-30T16:00:00.586Z,1.90
2022-09-30T16:02:32.072Z,2.70
2022-09-30T16:05:02.890Z,2.47
2022-09-30T16:07:32.963Z,2.17
2022-09-30T16:10:01.059Z,2.10
2022-09-30T16:12:33.635Z,2.50
2022-09-30T16:15:07.954Z,2.20
2022-09-30T16:17:39.089Z,2.10
2022-09-30T16:20:21.139Z,1.93
2022-09-30T16:22:54.854Z,1.97
2022-09-30T16:25:26.464Z,2.20
2022-09-30T16:27:59.194Z,2.50
2022-09-30T16:30:28.135Z,2.23
2022-09-30T16:33:00.227Z,2.33
2022-09-30T16:35:29.374Z,2.27
2022-09-30T16:38:02.502Z,1.97
2022-09-30T16:40:32.078Z,2.07
2022-09-30T16:43:03.194Z,2.33
2022-09-30T16:45:34.858Z,2.40
2022-09-30T16:48:14.520Z,2.97
2022-09-30T16:50:50.291Z,2.87
2022-09-30T16:53:18.538Z,2.27
2022-09-30T16:55:48.014Z,2.63
2022-09-30T16:58:16.553Z,2.90
2022-09-30T17:00:45.408Z,2.57
2022-09-30T17:03:16.477Z,2.97
2022-09-30T17:05:46.242Z,3.00
2022-09-30T17:08:16.966Z,2.67
2022-09-30T17:10:49.768Z,2.70
2022-09-30T17:13:18.100Z,3.17
2022-09-30T17:15:50.697Z,3.10
2022-09-30T17:18:20.638Z,2.93
2022-09-30T17:20:53.052Z,3.17
2022-09-30T17:23:22.193Z,2.93
2022-09-30T17:25:50.406Z,4.07
2022-09-30T17:28:18.787Z,4.00
2022-09-30T17:30:47.932Z,3.97
2022-09-30T17:33:16.655Z,4.13
2022-09-30T17:35:47.347Z,3.67
2022-09-30T17:38:15.824Z,3.73
2022-09-30T17:41:01.877Z,4.03
2022-09-30T17:43:29.812Z,4.90
2022-09-30T17:46:00.973Z,4.27
2022-09-30T17:48:29.207Z,4.03
2022-09-30T17:50:59.917Z,3.43
2022-09-30T17:53:29.304Z,3.30
2022-09-30T17:56:03.371Z,4.20
2022-09-30T17:58:31.711Z,4.07
2022-09-30T18:00:59.797Z,4.83
2022-09-30T18:03:28.473Z,4.17
2022-09-30T18:05:59.756Z,6.67
2022-09-30T18:08:30.681Z,4.10
2022-09-30T18:10:58.591Z,4.43
2022-09-30T18:13:26.642Z,4.40
2022-09-30T18:15:55.014Z,4.67
2022-09-30T18:18:23.062Z,4.37
2022-09-30T18:20:51.928Z,4.87
2022-09-30T18:23:21.368Z,5.70
2022-09-30T18:25:49.739Z,4.90
2022-09-30T18:28:18.433Z,5.13
2022-09-30T18:30:46.566Z,4.93
2022-09-30T18:33:18.678Z,5.60
2022-09-30T18:35:47.468Z,5.27
2022-09-30T18:38:15.392Z,5.30
2022-09-30T18:40:45.699Z,6.17
2022-09-30T18:43:14.988Z,6.00
2022-09-30T18:45:44.045Z,5.60
2022-09-30T18:48:12.187Z,6.83
2022-09-30T18:50:40.106Z,7.07
2022-09-30T18:53:09.880Z,5.97
2022-09-30T18:55:38.790Z,5.67
2022-09-30T18:58:08.002Z,5.87
2022-09-30T19:00:36.643Z,5.90
2022-09-30T19:03:10.238Z,7.00
2022-09-30T19:05:38.079Z,6.70
2022-09-30T19:08:06.010Z,8.63
2022-09-30T19:10:34.527Z,9.33
2022-09-30T19:13:02.446Z,6.53
2022-09-30T19:15:31.671Z,6.17
2022-09-30T19:17:59.885Z,6.87
2022-09-30T19:20:28.200Z,6.87
2022-09-30T19:22:56.098Z,6.80
2022-09-30T19:25:24.037Z,6.47
2022-09-30T19:27:52.942Z,6.90
2022-09-30T19:30:20.962Z,7.43
2022-09-30T19:32:53.284Z,7.00
2022-09-30T19:35:31.435Z,7.10
2022-09-30T19:38:05.985Z,6.47
2022-09-30T19:43:08.107Z,6.17
2022-09-30T19:45:36.257Z,6.17
2022-09-30T19:48:05.702Z,6.47
2022-09-30T19:50:36.692Z,6.17
2022-09-30T19:53:04.600Z,7.53
2022-09-30T19:55:43.420Z,7.37
2022-09-30T19:58:14.070Z,7.33
2022-09-30T20:00:42.591Z,7.00
2022-09-30T20:03:12.865Z,7.27
2022-09-30T20:05:43.872Z,7.33
2022-09-30T20:08:11.876Z,7.07
2022-09-30T20:10:39.796Z,11.03
2022-09-30T20:13:07.606Z,9.03
2022-09-30T20:15:52.824Z,8.50
2022-09-30T20:18:22.332Z,7.97
2022-09-30T20:20:50.453Z,6.77
2022-09-30T20:23:19.255Z,6.63
2022-09-30T20:25:47.234Z,7.43
2022-09-30T20:28:15.286Z,7.40
2022-09-30T20:30:46.375Z,6.67
2022-09-30T20:33:17.012Z,6.67
2022-09-30T20:35:46.693Z,7.40
2022-09-30T20:38:16.578Z,7.93
2022-09-30T20:40:44.972Z,7.70
2022-09-30T20:43:13.735Z,8.37
2022-09-30T20:45:41.689Z,7.40
2022-09-30T20:48:09.751Z,7.70
2022-09-30T20:50:43.042Z,7.57
2022-09-30T20:53:14.119Z,7.30
2022-09-30T20:55:44.437Z,8.77
2022-09-30T20:58:13.387Z,8.30
2022-09-30T21:00:42.869Z,8.87
2022-09-30T21:03:12.892Z,8.67
2022-09-30T21:05:41.314Z,9.23
2022-09-30T21:08:09.240Z,8.67
2022-09-30T21:10:38.985Z,8.30
2022-09-30T21:13:11.271Z,8.20
2022-09-30T21:15:39.897Z,8.13
2022-09-30T21:18:08.346Z,7.93
2022-09-30T21:20:36.530Z,8.13
2022-09-30T21:23:04.647Z,8.47
2022-09-30T21:25:33.183Z,9.70
2022-09-30T21:28:03.481Z,10.13
2022-09-30T21:30:31.460Z,11.10
2022-09-30T21:32:59.305Z,9.80
2022-09-30T21:35:27.178Z,8.83
2022-09-30T21:37:55.096Z,9.00
2022-09-30T21:40:23.085Z,9.20
2022-09-30T21:42:50.926Z,8.97
2022-09-30T21:45:20.208Z,8.60
2022-09-30T21:47:48.072Z,8.17
2022-09-30T21:50:16.066Z,8.93
2022-09-30T21:52:44.068Z,9.60
2022-09-30T21:55:13.295Z,8.60
2022-09-30T21:57:41.181Z,8.77
2022-09-30T22:00:10.483Z,9.23
2022-09-30T22:02:43.633Z,9.10
2022-09-30T22:05:12.011Z,8.47
2022-09-30T22:07:40.172Z,9.83
2022-09-30T22:10:09.367Z,9.83
2022-09-30T22:12:38.140Z,9.80
2022-09-30T22:15:07.008Z,8.83
2022-09-30T22:17:34.846Z,9.47
2022-09-30T22:20:04.795Z,9.90
2022-09-30T22:22:34.044Z,9.10
2022-09-30T22:25:02.462Z,9.63
2022-09-30T22:27:32.592Z,9.37
2022-09-30T22:30:00.646Z,9.73
2022-09-30T22:32:28.671Z,9.27
2022-09-30T22:35:14.217Z,10.03
2022-09-30T22:38:03.163Z,10.77
2022-09-30T22:40:31.056Z,10.17
2022-09-30T22:42:58.961Z,9.30
2022-09-30T22:45:26.908Z,9.43
2022-09-30T22:47:56.815Z,9.10
2022-09-30T22:50:25.991Z,8.90
2022-09-30T22:52:55.311Z,8.73
2022-09-30T22:55:23.348Z,9.00
2022-09-30T22:57:51.252Z,9.63
2022-09-30T23:00:19.331Z,8.50
2022-09-30T23:02:48.239Z,8.77
2022-09-30T23:05:16.208Z,9.53
2022-09-30T23:07:44.162Z,8.90
2022-09-30T23:10:13.712Z,9.67
2022-09-30T23:12:41.548Z,9.67
2022-09-30T23:15:10.230Z,8.67
2022-09-30T23:17:38.442Z,9.23
2022-09-30T23:20:07.189Z,9.10
2022-09-30T23:22:35.097Z,8.30
2022-09-30T23:25:03.283Z,9.10
2022-09-30T23:27:32.586Z,11.73
2022-09-30T23:30:00.484Z,9.17
2022-09-30T23:32:28.384Z,8.47
2022-09-30T23:34:56.288Z,8.20
2022-09-30T23:37:24.261Z,8.47
2022-09-30T23:39:52.195Z,8.00
2022-09-30T23:42:20.157Z,9.07
2022-09-30T23:44:49.317Z,8.60
2022-09-30T23:47:21.347Z,8.30
2022-09-30T23:49:50.397Z,8.73
2022-09-30T23:52:18.488Z,8.37
2022-09-30T23:54:46.833Z,8.70
2022-09-30T23:57:14.947Z,8.63
2022-09-30T23:59:42.855Z,9.30
